createdAt,value
2022-12-03T00:00:35.833Z,76.54
2022-12-03T00:01:37.706Z,76.78
2022-12-03T00:02:40.884Z,76.96
2022-12-03T00:03:43.484Z,76.89
2022-12-03T00:04:46.503Z,77.02
2022-12-03T00:05:49.810Z,77.28
2022-12-03T00:06:52.791Z,76.96
2022-12-03T00:07:54.693Z,76.83
2022-12-03T00:08:57.771Z,76.83
2022-12-03T00:09:59.755Z,76.63
2022-12-03T00:11:02.716Z,76.83
2022-12-03T00:12:04.933Z,76.91
2022-12-03T00:13:07.815Z,76.76
2022-12-03T00:14:09.726Z,77.28
2022-12-03T00:15:12.711Z,77.40
2022-12-03T00:16:14.724Z,77.22
2022-12-03T00:17:18.015Z,77.29
2022-12-03T00:18:19.890Z,77.04
2022-12-03T00:19:22.777Z,77.16
2022-12-03T00:20:26.253Z,77.12
2022-12-03T00:21:29.545Z,77.33
2022-12-03T00:22:32.433Z,77.04
2022-12-03T00:23:38.639Z,76.87
2022-12-03T00:24:44.706Z,77.47
2022-12-03T00:25:47.641Z,77.08
2022-12-03T00:26:49.507Z,77.33
2022-12-03T00:27:52.447Z,76.89
2022-12-03T00:28:54.887Z,76.54
2022-12-03T00:29:57.768Z,76.75
2022-12-03T00:30:59.675Z,76.83
2022-12-03T00:32:02.679Z,76.85
2022-12-03T00:33:04.637Z,76.41
2022-12-03T00:34:07.514Z,76.80
2022-12-03T00:35:09.964Z,76.74
2022-12-03T00:36:12.798Z,76.55
2022-12-03T00:37:16.000Z,77.07
2022-12-03T00:38:18.950Z,76.50
2022-12-03T00:39:20.819Z,77.09
2022-12-03T00:40:23.670Z,76.72
2022-12-03T00:41:25.967Z,76.42
2022-12-03T00:42:30.068Z,76.48
2022-12-03T00:43:32.191Z,76.55
2022-12-03T00:44:35.166Z,76.82
2022-12-03T00:45:37.082Z,76.76
2022-12-03T00:46:39.997Z,77.16
2022-12-03T00:47:41.914Z,77.05
2022-12-03T00:48:44.760Z,76.68
2022-12-03T00:49:48.499Z,76.47
2022-12-03T00:50:51.333Z,76.58
2022-12-03T00:51:53.246Z,76.79
2022-12-03T00:52:57.544Z,76.81
2022-12-03T00:53:59.421Z,76.98
2022-12-03T00:55:02.267Z,76.96
2022-12-03T00:56:04.303Z,76.94
2022-12-03T00:57:07.218Z,77.12
2022-12-03T00:58:09.457Z,76.92
2022-12-03T00:59:12.371Z,77.02
2022-12-03T01:00:15.789Z,76.59
2022-12-03T01:01:18.665Z,76.63
2022-12-03T01:02:21.646Z,76.72
2022-12-03T01:03:23.537Z,76.96
2022-12-03T01:04:26.515Z,76.64
2022-12-03T01:05:28.608Z,76.89
2022-12-03T01:06:31.459Z,76.96
2022-12-03T01:07:33.472Z,76.69
2022-12-03T01:08:37.747Z,76.92
2022-12-03T01:09:39.597Z,76.56
2022-12-03T01:10:42.531Z,76.29
2022-12-03T01:11:44.605Z,76.59
2022-12-03T01:12:47.498Z,76.65
2022-12-03T01:13:49.465Z,76.76
2022-12-03T01:14:52.825Z,76.54
2022-12-03T01:15:55.147Z,76.67
2022-12-03T01:16:58.118Z,76.41
2022-12-03T01:17:59.987Z,76.41
2022-12-03T01:19:03.237Z,76.02
2022-12-03T01:20:07.787Z,76.95
2022-12-03T01:21:10.625Z,76.36
2022-12-03T01:22:12.563Z,76.43
2022-12-03T01:23:15.407Z,76.67
2022-12-03T01:24:19.228Z,76.51
2022-12-03T01:25:22.209Z,76.39
2022-12-03T01:26:25.952Z,76.87
2022-12-03T01:27:28.861Z,76.60
2022-12-03T01:28:31.556Z,76.91
2022-12-03T01:29:34.460Z,76.72
2022-12-03T01:30:57.030Z,76.48
2022-12-03T01:32:17.586Z,77.00
2022-12-03T01:33:20.502Z,77.28
2022-12-03T01:34:22.389Z,77.51
2022-12-03T01:35:25.275Z,77.18
2022-12-03T01:36:27.346Z,76.93
2022-12-03T01:37:30.279Z,77.17
2022-12-03T01:38:32.121Z,77.01
2022-12-03T01:39:36.533Z,77.15
2022-12-03T01:40:38.454Z,77.58
2022-12-03T01:41:42.078Z,76.91
2022-12-03T01:42:44.022Z,77.48
2022-12-03T01:43:47.566Z,77.26
2022-12-03T01:44:51.616Z,77.19
2022-12-03T01:45:54.787Z,77.14
2022-12-03T01:46:58.653Z,77.11
2022-12-03T01:48:01.705Z,76.86
2022-12-03T01:49:03.724Z,77.14
2022-12-03T01:50:09.624Z,76.92
2022-12-03T01:51:13.022Z,76.37
2022-12-03T01:52:19.308Z,76.66
2022-12-03T01:53:22.055Z,76.58
2022-12-03T01:54:28.259Z,76.87
2022-12-03T01:55:31.832Z,77.36
2022-12-03T01:56:34.748Z,77.13
2022-12-03T01:57:42.172Z,76.93
2022-12-03T01:58:45.001Z,77.07
2022-12-03T01:59:48.575Z,76.82
2022-12-03T02:00:50.699Z,76.52
2022-12-03T02:01:53.662Z,76.93
2022-12-03T02:02:57.978Z,77.12
2022-12-03T02:04:00.861Z,76.93
2022-12-03T02:05:14.534Z,77.11
2022-12-03T02:06:20.264Z,76.83
2022-12-03T02:07:25.585Z,76.40
2022-12-03T02:08:30.222Z,76.77
2022-12-03T02:09:32.029Z,76.48
2022-12-03T02:10:38.887Z,76.86
2022-12-03T02:11:45.145Z,76.75
2022-12-03T02:12:51.779Z,76.29
2022-12-03T02:13:57.161Z,76.79
2022-12-03T02:15:00.714Z,76.38
2022-12-03T02:16:03.659Z,76.53
2022-12-03T02:17:06.647Z,76.29
2022-12-03T02:18:09.399Z,76.41
2022-12-03T02:19:20.055Z,76.53
2022-12-03T02:20:23.640Z,76.39
2022-12-03T02:21:31.649Z,76.28
2022-12-03T02:22:41.437Z,76.40
2022-12-03T02:23:50.682Z,76.67
2022-12-03T02:24:57.187Z,76.47
2022-12-03T02:26:00.514Z,76.36
2022-12-03T02:27:03.809Z,76.20
2022-12-03T02:28:09.036Z,75.97
2022-12-03T02:29:12.452Z,75.93
2022-12-03T02:30:17.882Z,76.29
2022-12-03T02:31:20.863Z,76.11
2022-12-03T02:32:23.533Z,76.17
2022-12-03T02:33:26.746Z,76.23
2022-12-03T02:34:37.310Z,76.97
2022-12-03T02:35:40.933Z,76.76
2022-12-03T02:36:42.798Z,75.99
2022-12-03T02:37:47.125Z,76.02
2022-12-03T02:38:49.874Z,76.74
2022-12-03T02:39:55.904Z,76.63
2022-12-03T02:41:02.758Z,76.19
2022-12-03T02:42:26.578Z,76.55
2022-12-03T02:43:29.514Z,76.66
2022-12-03T02:44:31.452Z,76.49
2022-12-03T02:45:39.258Z,76.77
2022-12-03T02:46:41.571Z,76.33
2022-12-03T02:47:47.166Z,76.65
2022-12-03T02:48:49.066Z,75.94
2022-12-03T02:49:52.998Z,75.93
2022-12-03T02:50:57.638Z,76.00
2022-12-03T02:52:00.713Z,76.24
2022-12-03T02:53:05.993Z,76.07
2022-12-03T02:54:08.841Z,76.46
2022-12-03T02:55:12.629Z,76.45
2022-12-03T02:56:19.905Z,76.38
2022-12-03T02:57:21.997Z,76.51
2022-12-03T02:58:26.581Z,76.39
2022-12-03T02:59:28.495Z,76.18
2022-12-03T03:00:32.045Z,76.38
2022-12-03T03:01:35.088Z,76.83
2022-12-03T03:02:39.757Z,76.51
2022-12-03T03:03:42.078Z,76.20
2022-12-03T03:04:45.650Z,76.59
2022-12-03T03:05:48.927Z,76.39
2022-12-03T03:06:52.599Z,76.27
2022-12-03T03:07:54.755Z,76.43
2022-12-03T03:08:58.264Z,76.25
2022-12-03T03:10:00.902Z,76.16
2022-12-03T03:11:04.219Z,76.30
2022-12-03T03:12:07.718Z,76.58
2022-12-03T03:13:13.286Z,76.69
2022-12-03T03:14:15.442Z,76.48
2022-12-03T03:15:18.401Z,76.62
2022-12-03T03:16:20.311Z,76.89
2022-12-03T03:17:23.214Z,76.59
2022-12-03T03:18:25.335Z,76.92
2022-12-03T03:19:29.878Z,76.83
2022-12-03T03:20:32.107Z,76.65
2022-12-03T03:21:35.005Z,76.58
2022-12-03T03:22:38.991Z,76.34
2022-12-03T03:23:41.799Z,76.33
2022-12-03T03:24:43.722Z,76.45
2022-12-03T03:25:48.688Z,76.47
2022-12-03T03:26:50.953Z,76.22
2022-12-03T03:27:55.216Z,76.12
2022-12-03T03:29:00.306Z,76.36
2022-12-03T03:30:04.676Z,76.43
2022-12-03T03:31:09.318Z,76.27
2022-12-03T03:32:12.260Z,76.55
2022-12-03T03:33:15.949Z,76.62
2022-12-03T03:34:18.973Z,76.38
2022-12-03T03:35:21.152Z,76.56
2022-12-03T03:36:24.409Z,75.95
2022-12-03T03:37:27.543Z,76.09
2022-12-03T03:38:31.375Z,76.71
2022-12-03T03:39:33.271Z,76.53
2022-12-03T03:40:39.467Z,76.24
2022-12-03T03:41:42.829Z,75.88
2022-12-03T03:42:45.731Z,76.26
2022-12-03T03:43:50.156Z,76.32
2022-12-03T03:44:54.166Z,76.17
2022-12-03T03:45:56.740Z,75.92
2022-12-03T03:46:59.971Z,76.24
2022-12-03T03:48:02.127Z,76.74
2022-12-03T03:49:06.198Z,75.86
2022-12-03T03:50:10.460Z,76.01
2022-12-03T03:51:14.474Z,76.18
2022-12-03T03:52:17.274Z,76.17
2022-12-03T03:53:21.142Z,76.01
2022-12-03T03:54:23.721Z,75.99
2022-12-03T03:55:26.869Z,76.18
2022-12-03T03:56:28.843Z,76.03
2022-12-03T03:57:31.737Z,76.14
2022-12-03T03:58:33.826Z,76.56
2022-12-03T03:59:38.113Z,76.10
2022-12-03T04:00:42.024Z,76.28
2022-12-03T04:01:46.039Z,76.46
2022-12-03T04:02:47.976Z,76.30
2022-12-03T04:03:50.910Z,76.44
2022-12-03T04:04:53.533Z,75.53
2022-12-03T04:05:56.820Z,76.33
2022-12-03T04:06:59.581Z,76.25
2022-12-03T04:08:02.441Z,75.36
2022-12-03T04:09:04.374Z,75.77
2022-12-03T04:10:36.719Z,76.00
2022-12-03T04:11:57.286Z,76.23
2022-12-03T04:12:59.852Z,75.97
2022-12-03T04:14:02.391Z,76.39
2022-12-03T04:15:08.170Z,75.90
2022-12-03T04:16:10.160Z,76.16
2022-12-03T04:17:13.104Z,75.96
2022-12-03T04:18:33.518Z,76.22
2022-12-03T04:19:36.443Z,74.62
2022-12-03T04:20:38.602Z,74.83
2022-12-03T04:21:58.882Z,75.68
2022-12-03T04:23:00.729Z,76.10
2022-12-03T04:24:04.162Z,76.01
2022-12-03T04:25:21.932Z,76.23
2022-12-03T04:26:46.879Z,76.28
2022-12-03T04:28:11.272Z,76.43
2022-12-03T04:29:14.540Z,75.85
2022-12-03T04:30:18.193Z,76.59
2022-12-03T04:31:38.782Z,76.17
2022-12-03T04:32:59.144Z,76.57
2022-12-03T04:34:19.484Z,76.10
2022-12-03T04:35:39.820Z,76.25
2022-12-03T04:36:45.107Z,76.20
2022-12-03T04:37:47.978Z,76.75
2022-12-03T04:38:49.886Z,75.92
2022-12-03T04:39:52.886Z,76.60
2022-12-03T04:41:00.815Z,76.08
2022-12-03T04:42:03.801Z,75.51
2022-12-03T04:43:05.858Z,76.27
2022-12-03T04:44:26.368Z,75.91
2022-12-03T04:45:30.603Z,75.58
2022-12-03T04:46:32.724Z,75.91
2022-12-03T04:47:39.907Z,75.00
2022-12-03T04:48:41.973Z,75.89
2022-12-03T04:49:47.309Z,75.81
2022-12-03T04:50:49.440Z,75.93
2022-12-03T04:51:52.327Z,75.76
2022-12-03T04:52:54.134Z,76.41
2022-12-03T04:53:57.019Z,75.57
2022-12-03T04:54:59.853Z,75.93
2022-12-03T04:56:01.695Z,76.56
2022-12-03T04:57:05.186Z,76.49
2022-12-03T04:58:07.208Z,76.76
2022-12-03T04:59:15.616Z,76.07
2022-12-03T05:00:18.367Z,76.81
2022-12-03T05:01:22.797Z,76.57
2022-12-03T05:02:25.763Z,75.93
2022-12-03T05:03:27.716Z,76.25
2022-12-03T05:04:30.632Z,75.95
2022-12-03T05:05:32.452Z,75.97
2022-12-03T05:06:35.365Z,76.24
2022-12-03T05:07:38.459Z,75.58
2022-12-03T05:08:40.380Z,75.39
2022-12-03T05:09:43.216Z,75.52
2022-12-03T05:10:45.058Z,76.05
2022-12-03T05:11:48.221Z,75.30
2022-12-03T05:12:50.107Z,75.29
2022-12-03T05:13:53.771Z,76.15
2022-12-03T05:14:56.006Z,75.87
2022-12-03T05:15:59.201Z,75.83
2022-12-03T05:17:02.508Z,76.09
2022-12-03T05:18:05.718Z,76.28
2022-12-03T05:19:08.662Z,76.22
2022-12-03T05:20:30.246Z,75.79
2022-12-03T05:21:33.243Z,75.65
2022-12-03T05:22:35.128Z,75.70
2022-12-03T05:23:37.989Z,75.48
2022-12-03T05:24:39.959Z,75.36
2022-12-03T05:25:42.981Z,75.27
2022-12-03T05:26:45.819Z,76.07
2022-12-03T05:27:47.658Z,75.22
2022-12-03T05:28:50.603Z,75.19
2022-12-03T05:29:53.008Z,76.23
2022-12-03T05:30:56.024Z,75.73
2022-12-03T05:31:57.877Z,75.84
2022-12-03T05:33:02.039Z,75.92
2022-12-03T05:34:03.905Z,75.74
2022-12-03T05:35:07.495Z,75.88
2022-12-03T05:36:10.238Z,76.63
2022-12-03T05:37:13.127Z,76.60
2022-12-03T05:38:15.280Z,75.94
2022-12-03T05:39:18.117Z,76.61
2022-12-03T05:40:21.021Z,76.06
2022-12-03T05:41:41.587Z,76.67
2022-12-03T05:42:57.023Z,76.67
2022-12-03T05:43:58.974Z,76.46
2022-12-03T05:45:00.831Z,75.91
2022-12-03T05:46:03.724Z,75.46
2022-12-03T05:47:05.650Z,76.39
2022-12-03T05:48:11.843Z,75.73
2022-12-03T05:49:13.700Z,75.20
2022-12-03T05:50:16.958Z,74.85
2022-12-03T05:51:19.868Z,75.70
2022-12-03T05:52:21.736Z,75.65
2022-12-03T05:53:24.606Z,76.40
2022-12-03T05:54:26.486Z,76.82
2022-12-03T05:55:29.806Z,76.67
2022-12-03T05:56:32.915Z,76.26
2022-12-03T05:57:35.773Z,76.38
2022-12-03T05:58:37.602Z,75.41
2022-12-03T05:59:40.500Z,75.67
2022-12-03T06:00:43.138Z,75.37
2022-12-03T06:01:46.115Z,76.12
2022-12-03T06:02:48.256Z,75.90
2022-12-03T06:03:52.880Z,76.41
2022-12-03T06:04:55.336Z,76.33
2022-12-03T06:05:58.473Z,76.48
2022-12-03T06:07:01.425Z,75.90
2022-12-03T06:08:04.617Z,75.93
2022-12-03T06:09:06.895Z,75.97
2022-12-03T06:10:12.208Z,76.36
2022-12-03T06:11:14.079Z,75.92
2022-12-03T06:12:17.115Z,75.92
2022-12-03T06:13:18.989Z,76.20
2022-12-03T06:14:22.379Z,75.89
2022-12-03T06:15:24.645Z,76.03
2022-12-03T06:16:27.866Z,75.84
2022-12-03T06:17:31.170Z,75.59
2022-12-03T06:18:34.224Z,75.11
2022-12-03T06:19:37.412Z,75.91
2022-12-03T06:20:40.470Z,75.52
2022-12-03T06:21:42.317Z,75.34
2022-12-03T06:22:45.221Z,76.04
2022-12-03T06:23:47.068Z,75.81
2022-12-03T06:24:50.199Z,76.19
2022-12-03T06:25:53.118Z,75.98
2022-12-03T06:26:55.003Z,76.69
2022-12-03T06:28:12.953Z,76.35
2022-12-03T06:29:14.858Z,75.88
2022-12-03T06:30:17.993Z,76.16
2022-12-03T06:31:19.880Z,75.55
2022-12-03T06:32:22.890Z,75.66
2022-12-03T06:33:24.763Z,75.92
2022-12-03T06:34:27.827Z,74.69
2022-12-03T06:35:31.116Z,76.13
2022-12-03T06:36:34.026Z,76.04
2022-12-03T06:37:35.909Z,76.04
2022-12-03T06:38:38.803Z,76.12
2022-12-03T06:39:40.953Z,76.38
2022-12-03T06:40:43.718Z,76.41
2022-12-03T06:41:45.623Z,76.17
2022-12-03T06:42:49.017Z,75.84
2022-12-03T06:43:50.857Z,74.93
2022-12-03T06:44:54.000Z,75.48
2022-12-03T06:45:56.086Z,76.25
2022-12-03T06:47:00.451Z,75.81
2022-12-03T06:48:02.333Z,75.73
2022-12-03T06:49:05.293Z,76.16
2022-12-03T06:50:08.675Z,76.18
2022-12-03T06:51:12.830Z,76.49
2022-12-03T06:52:14.781Z,76.44
2022-12-03T06:53:17.773Z,76.94
2022-12-03T06:54:19.593Z,76.43
2022-12-03T06:55:22.412Z,76.23
2022-12-03T06:56:25.764Z,75.97
2022-12-03T06:57:30.250Z,76.44
2022-12-03T06:58:32.212Z,76.04
2022-12-03T06:59:37.439Z,76.18
2022-12-03T07:00:39.343Z,76.32
2022-12-03T07:01:42.292Z,76.63
2022-12-03T07:02:45.437Z,76.57
2022-12-03T07:03:48.554Z,76.73
2022-12-03T07:04:51.576Z,76.62
2022-12-03T07:05:53.424Z,76.30
2022-12-03T07:06:57.607Z,76.87
2022-12-03T07:07:59.684Z,76.56
2022-12-03T07:09:02.579Z,76.30
2022-12-03T07:10:06.458Z,76.44
2022-12-03T07:11:29.068Z,76.42
2022-12-03T07:12:32.728Z,76.39
2022-12-03T07:13:34.732Z,76.06
2022-12-03T07:14:37.635Z,75.61
2022-12-03T07:15:39.470Z,76.03
2022-12-03T07:16:43.428Z,76.09
2022-12-03T07:17:45.483Z,76.02
2022-12-03T07:18:48.362Z,76.08
2022-12-03T07:19:51.481Z,75.97
2022-12-03T07:20:53.380Z,75.97
2022-12-03T07:21:57.680Z,76.07
2022-12-03T07:22:59.545Z,75.86
2022-12-03T07:24:02.419Z,75.68
2022-12-03T07:25:04.808Z,75.98
2022-12-03T07:26:07.759Z,75.84
2022-12-03T07:27:09.650Z,75.84
2022-12-03T07:28:12.543Z,76.00
2022-12-03T07:29:15.422Z,76.28
2022-12-03T07:30:17.675Z,75.44
2022-12-03T07:31:20.621Z,76.38
2022-12-03T07:32:23.566Z,76.07
2022-12-03T07:33:25.410Z,75.94
2022-12-03T07:34:28.545Z,76.25
2022-12-03T07:35:30.344Z,76.49
2022-12-03T07:36:33.287Z,76.31
2022-12-03T07:37:37.866Z,76.17
2022-12-03T07:38:39.732Z,76.25
2022-12-03T07:39:42.612Z,76.57
2022-12-03T07:40:45.109Z,76.35
2022-12-03T07:41:47.909Z,76.69
2022-12-03T07:42:49.728Z,76.10
2022-12-03T07:43:52.547Z,76.01
2022-12-03T07:44:54.785Z,75.85
2022-12-03T07:45:58.541Z,75.92
2022-12-03T07:47:01.574Z,76.01
2022-12-03T07:48:03.725Z,76.21
2022-12-03T07:49:06.711Z,75.41
2022-12-03T07:50:09.790Z,75.85
2022-12-03T07:51:15.151Z,75.82
2022-12-03T07:52:17.573Z,75.87
2022-12-03T07:53:22.193Z,75.68
2022-12-03T07:54:26.028Z,76.20
2022-12-03T07:55:27.956Z,76.61
2022-12-03T07:56:31.094Z,76.50
2022-12-03T07:57:32.936Z,75.95
2022-12-03T07:58:35.789Z,76.06
2022-12-03T07:59:37.662Z,75.45
2022-12-03T08:00:40.592Z,76.00
2022-12-03T08:01:42.562Z,75.67
2022-12-03T08:02:45.536Z,75.78
2022-12-03T08:03:47.455Z,76.44
2022-12-03T08:04:50.650Z,76.11
2022-12-03T08:05:52.759Z,76.29
2022-12-03T08:06:55.726Z,76.18
2022-12-03T08:07:57.685Z,76.36
2022-12-03T08:09:01.912Z,76.58
2022-12-03T08:10:04.494Z,76.54
2022-12-03T08:11:07.742Z,76.06
2022-12-03T08:12:17.809Z,75.85
2022-12-03T08:13:20.792Z,75.77
2022-12-03T08:14:24.605Z,76.18
2022-12-03T08:15:35.252Z,75.65
2022-12-03T08:16:44.163Z,75.90
2022-12-03T08:17:48.622Z,76.01
2022-12-03T08:18:53.243Z,76.06
2022-12-03T08:19:55.054Z,76.35
2022-12-03T08:20:58.428Z,76.01
2022-12-03T08:22:01.545Z,75.50
2022-12-03T08:23:11.101Z,75.67
2022-12-03T08:24:18.052Z,75.76
2022-12-03T08:25:23.070Z,75.75
2022-12-03T08:26:29.160Z,76.01
2022-12-03T08:27:31.083Z,76.40
2022-12-03T08:28:33.991Z,76.32
2022-12-03T08:29:35.856Z,75.88
2022-12-03T08:30:38.931Z,76.08
2022-12-03T08:31:42.545Z,75.67
2022-12-03T08:32:45.068Z,76.14
2022-12-03T08:33:49.999Z,76.42
2022-12-03T08:34:53.168Z,76.11
2022-12-03T08:35:56.562Z,75.84
2022-12-03T08:37:02.185Z,76.25
2022-12-03T08:38:11.258Z,76.29
2022-12-03T08:39:28.990Z,76.15
2022-12-03T08:40:36.236Z,76.37
2022-12-03T08:41:57.765Z,76.12
2022-12-03T08:43:00.648Z,75.85
2022-12-03T08:44:20.527Z,76.13
2022-12-03T08:45:41.418Z,76.50
2022-12-03T08:46:44.432Z,75.69
2022-12-03T08:47:46.529Z,76.12
2022-12-03T08:48:49.781Z,75.92
2022-12-03T08:49:56.056Z,76.41
2022-12-03T08:51:01.616Z,76.37
2022-12-03T08:52:14.260Z,75.76
2022-12-03T08:53:27.826Z,76.03
2022-12-03T08:54:32.466Z,76.48
2022-12-03T08:55:36.593Z,76.54
2022-12-03T08:56:40.134Z,75.96
2022-12-03T08:57:43.428Z,75.78
2022-12-03T08:58:48.850Z,76.26
2022-12-03T08:59:53.516Z,75.98
2022-12-03T09:00:59.313Z,76.27
2022-12-03T09:02:02.268Z,76.06
2022-12-03T09:03:10.877Z,76.27
2022-12-03T09:04:22.734Z,75.97
2022-12-03T09:05:30.315Z,76.00
2022-12-03T09:06:32.290Z,76.72
2022-12-03T09:07:35.268Z,76.25
2022-12-03T09:08:37.498Z,76.78
2022-12-03T09:09:42.315Z,75.68
2022-12-03T09:10:44.153Z,76.45
2022-12-03T09:11:47.637Z,76.07
2022-12-03T09:12:50.685Z,76.37
2022-12-03T09:13:52.591Z,76.87
2022-12-03T09:14:55.801Z,76.82
2022-12-03T09:15:57.916Z,76.36
2022-12-03T09:17:02.286Z,76.49
2022-12-03T09:18:04.561Z,76.63
2022-12-03T09:19:07.546Z,76.26
2022-12-03T09:20:10.159Z,76.61
2022-12-03T09:21:13.050Z,75.80
2022-12-03T09:22:17.265Z,76.67
2022-12-03T09:23:20.320Z,76.59
2022-12-03T09:24:22.200Z,76.29
2022-12-03T09:25:26.402Z,76.06
2022-12-03T09:26:28.391Z,75.60
2022-12-03T09:27:31.520Z,75.70
2022-12-03T09:28:33.461Z,76.40
2022-12-03T09:29:36.408Z,76.65
2022-12-03T09:30:38.891Z,76.90
2022-12-03T09:31:42.014Z,76.40
2022-12-03T09:32:45.774Z,76.80
2022-12-03T09:33:48.742Z,76.05
2022-12-03T09:34:51.952Z,76.79
2022-12-03T09:35:53.988Z,76.59
2022-12-03T09:36:56.901Z,77.22
2022-12-03T09:37:58.899Z,77.05
2022-12-03T09:39:03.843Z,76.89
2022-12-03T09:40:08.377Z,76.44
2022-12-03T09:41:11.802Z,76.19
2022-12-03T09:42:15.710Z,76.63
2022-12-03T09:43:18.729Z,76.29
2022-12-03T09:44:21.717Z,76.15
2022-12-03T09:45:23.615Z,76.70
2022-12-03T09:46:26.642Z,76.66
2022-12-03T09:47:30.856Z,76.32
2022-12-03T09:48:32.844Z,75.86
2022-12-03T09:49:39.494Z,76.27
2022-12-03T09:50:43.591Z,76.78
2022-12-03T09:51:46.204Z,76.24
2022-12-03T09:52:51.099Z,76.02
2022-12-03T09:53:53.512Z,76.04
2022-12-03T09:55:06.607Z,75.66
2022-12-03T09:56:18.168Z,76.18
2022-12-03T09:57:21.222Z,76.05
2022-12-03T09:58:23.465Z,75.67
2022-12-03T09:59:31.534Z,76.13
2022-12-03T10:00:33.377Z,76.26
2022-12-03T10:01:36.866Z,75.88
2022-12-03T10:02:38.844Z,76.01
2022-12-03T10:03:47.217Z,76.75
2022-12-03T10:04:49.696Z,76.07
2022-12-03T10:05:52.832Z,76.08
2022-12-03T10:06:57.399Z,76.89
2022-12-03T10:08:04.656Z,76.59
2022-12-03T10:09:12.555Z,76.68
2022-12-03T10:10:18.000Z,76.59
2022-12-03T10:11:25.231Z,75.67
2022-12-03T10:12:28.139Z,76.01
2022-12-03T10:13:34.585Z,75.87
2022-12-03T10:14:37.491Z,76.26
2022-12-03T10:15:39.469Z,75.95
2022-12-03T10:16:43.054Z,75.61
2022-12-03T10:17:47.665Z,75.63
2022-12-03T10:18:54.833Z,76.17
2022-12-03T10:19:57.809Z,76.43
2022-12-03T10:20:59.925Z,75.52
2022-12-03T10:22:02.903Z,75.75
2022-12-03T10:23:05.832Z,76.26
2022-12-03T10:24:28.550Z,76.34
2022-12-03T10:25:31.463Z,75.93
2022-12-03T10:26:40.648Z,76.02
2022-12-03T10:27:44.134Z,76.45
2022-12-03T10:28:47.614Z,76.33
2022-12-03T10:29:57.044Z,76.44
2022-12-03T10:31:00.916Z,76.00
2022-12-03T10:32:06.178Z,76.56
2022-12-03T10:33:18.491Z,76.06
2022-12-03T10:34:26.002Z,76.13
2022-12-03T10:35:41.100Z,76.05
2022-12-03T10:36:43.998Z,75.77
2022-12-03T10:37:59.120Z,75.94
2022-12-03T10:39:12.291Z,75.66
2022-12-03T10:40:15.356Z,75.77
2022-12-03T10:41:22.646Z,75.51
2022-12-03T10:42:28.555Z,75.96
2022-12-03T10:43:31.467Z,75.36
2022-12-03T10:44:35.226Z,75.62
2022-12-03T10:45:38.103Z,76.31
2022-12-03T10:46:40.228Z,76.24
2022-12-03T10:47:43.965Z,76.49
2022-12-03T10:48:46.246Z,76.44
2022-12-03T10:50:03.183Z,75.70
2022-12-03T10:51:08.069Z,75.71
2022-12-03T10:52:25.645Z,75.99
2022-12-03T10:53:30.418Z,75.81
2022-12-03T10:54:36.016Z,75.83
2022-12-03T10:55:41.087Z,76.14
2022-12-03T10:56:44.762Z,75.83
2022-12-03T10:57:49.114Z,76.25
2022-12-03T10:58:51.533Z,75.96
2022-12-03T10:59:54.450Z,76.45
2022-12-03T11:00:59.124Z,75.80
2022-12-03T11:02:03.789Z,75.78
2022-12-03T11:03:18.360Z,75.93
2022-12-03T11:04:22.727Z,76.22
2022-12-03T11:05:28.416Z,75.82
2022-12-03T11:06:33.127Z,75.61
2022-12-03T11:07:38.927Z,75.90
2022-12-03T11:08:44.966Z,76.34
2022-12-03T11:09:49.391Z,75.79
2022-12-03T11:10:59.933Z,75.80
2022-12-03T11:12:06.178Z,76.20
2022-12-03T11:13:45.256Z,75.89
2022-12-03T11:15:08.051Z,75.78
2022-12-03T11:16:10.249Z,76.10
2022-12-03T11:17:13.160Z,76.41
2022-12-03T11:19:01.233Z,75.65
2022-12-03T11:20:05.381Z,76.65
2022-12-03T11:21:09.782Z,75.92
2022-12-03T11:22:34.690Z,76.28
2022-12-03T11:24:02.720Z,76.53
2022-12-03T11:25:47.757Z,75.51
2022-12-03T11:27:23.990Z,75.74
2022-12-03T11:28:53.074Z,76.30
2022-12-03T11:30:05.118Z,75.90
2022-12-03T11:31:15.064Z,76.02
2022-12-03T11:33:07.273Z,76.33
2022-12-03T11:34:49.775Z,75.97
2022-12-03T11:36:12.277Z,76.62
2022-12-03T11:37:25.676Z,75.83
2022-12-03T11:38:42.635Z,76.32
2022-12-03T11:40:30.045Z,75.69
2022-12-03T11:41:36.391Z,75.65
2022-12-03T11:42:40.060Z,75.95
2022-12-03T11:44:19.066Z,75.14
2022-12-03T11:45:30.629Z,75.63
2022-12-03T11:46:43.365Z,75.83
2022-12-03T11:47:47.825Z,75.74
2022-12-03T11:48:54.327Z,76.32
2022-12-03T11:49:57.400Z,76.47
2022-12-03T11:50:59.276Z,75.97
2022-12-03T11:52:05.424Z,75.92
2022-12-03T11:53:17.342Z,76.23
2022-12-03T11:54:23.329Z,75.94
2022-12-03T11:55:30.540Z,75.37
2022-12-03T11:56:32.508Z,75.34
2022-12-03T11:57:38.042Z,75.48
2022-12-03T11:58:45.268Z,75.37
2022-12-03T11:59:59.314Z,75.96
2022-12-03T12:01:04.111Z,75.95
2022-12-03T12:02:20.141Z,76.05
2022-12-03T12:03:25.620Z,75.64
2022-12-03T12:04:31.310Z,75.68
2022-12-03T12:05:35.534Z,75.96
2022-12-03T12:06:42.480Z,76.06
2022-12-03T12:07:48.044Z,75.67
2022-12-03T12:08:58.583Z,75.40
2022-12-03T12:10:00.526Z,75.67
2022-12-03T12:11:03.843Z,75.42
2022-12-03T12:12:18.672Z,75.97
2022-12-03T12:13:49.925Z,75.17
2022-12-03T12:14:53.026Z,75.32
2022-12-03T12:15:56.970Z,75.37
2022-12-03T12:17:03.234Z,75.97
2022-12-03T12:18:37.093Z,75.81
2022-12-03T12:19:42.194Z,76.16
2022-12-03T12:20:44.145Z,75.70
2022-12-03T12:21:48.555Z,76.19
2022-12-03T12:22:51.729Z,75.83
2022-12-03T12:23:53.555Z,75.71
2022-12-03T12:24:57.735Z,75.26
2022-12-03T12:26:06.421Z,81.48
2022-12-03T12:27:11.308Z,81.63
2022-12-03T12:28:14.178Z,77.74
2022-12-03T12:29:16.164Z,76.12
2022-12-03T12:30:21.612Z,75.61
2022-12-03T12:31:25.936Z,75.36
2022-12-03T12:32:32.969Z,75.72
2022-12-03T12:33:35.447Z,75.64
2022-12-03T12:34:38.916Z,75.61
2022-12-03T12:35:42.396Z,75.57
2022-12-03T12:36:44.285Z,76.23
2022-12-03T12:37:59.173Z,76.35
2022-12-03T12:39:01.735Z,76.17
2022-12-03T12:40:13.496Z,75.83
2022-12-03T12:41:16.451Z,75.92
2022-12-03T12:42:30.095Z,76.12
2022-12-03T12:43:34.888Z,75.58
2022-12-03T12:44:36.790Z,76.21
2022-12-03T12:45:42.363Z,76.13
2022-12-03T12:46:48.331Z,76.44
2022-12-03T12:48:03.143Z,76.15
2022-12-03T12:49:11.889Z,75.71
2022-12-03T12:50:14.524Z,76.46
2022-12-03T12:51:19.559Z,76.03
2022-12-03T12:52:21.447Z,75.52
2022-12-03T12:53:27.199Z,76.24
2022-12-03T12:54:29.128Z,76.11
2022-12-03T12:55:32.028Z,76.14
2022-12-03T12:56:33.914Z,75.97
2022-12-03T12:57:36.771Z,76.31
2022-12-03T12:58:39.627Z,75.58
2022-12-03T12:59:41.666Z,76.43
2022-12-03T13:00:47.458Z,76.04
2022-12-03T13:01:51.921Z,76.35
2022-12-03T13:02:58.653Z,76.62
2022-12-03T13:04:02.912Z,76.01
2022-12-03T13:05:05.385Z,76.46
2022-12-03T13:06:15.765Z,76.83
2022-12-03T13:07:17.810Z,76.89
2022-12-03T13:08:27.415Z,76.30
2022-12-03T13:09:30.035Z,76.27
2022-12-03T13:10:37.803Z,76.20
2022-12-03T13:11:42.290Z,76.03
2022-12-03T13:12:45.594Z,76.45
2022-12-03T13:13:48.545Z,75.89
2022-12-03T13:14:52.214Z,75.75
2022-12-03T13:16:04.351Z,76.26
2022-12-03T13:17:15.618Z,76.35
2022-12-03T13:18:25.757Z,75.73
2022-12-03T13:19:30.163Z,75.77
2022-12-03T13:20:32.036Z,75.57
2022-12-03T13:21:38.881Z,75.51
2022-12-03T13:22:41.790Z,76.16
2022-12-03T13:23:44.804Z,75.59
2022-12-03T13:24:50.655Z,75.87
2022-12-03T13:26:09.305Z,75.76
2022-12-03T13:27:25.696Z,76.02
2022-12-03T13:28:31.147Z,76.20
2022-12-03T13:29:34.068Z,76.39
2022-12-03T13:30:38.690Z,76.23
2022-12-03T13:31:44.350Z,75.89
2022-12-03T13:32:49.147Z,75.71
2022-12-03T13:33:52.491Z,75.92
2022-12-03T13:35:00.862Z,75.93
2022-12-03T13:36:02.682Z,75.87
2022-12-03T13:37:14.939Z,75.32
2022-12-03T13:38:17.314Z,75.57
2022-12-03T13:39:22.829Z,75.79
2022-12-03T13:40:30.510Z,75.68
2022-12-03T13:41:52.214Z,76.09
2022-12-03T13:42:55.628Z,75.88
2022-12-03T13:43:58.599Z,75.75
2022-12-03T13:45:03.748Z,75.68
2022-12-03T13:46:06.053Z,75.75
2022-12-03T13:47:16.001Z,75.59
2022-12-03T13:48:23.770Z,75.64
2022-12-03T13:49:26.678Z,76.19
2022-12-03T13:50:33.845Z,75.99
2022-12-03T13:51:36.878Z,75.91
2022-12-03T13:52:39.820Z,76.59
2022-12-03T13:53:41.780Z,75.67
2022-12-03T13:54:44.904Z,75.55
2022-12-03T13:55:48.828Z,79.41
2022-12-03T13:56:52.353Z,77.96
2022-12-03T13:57:54.657Z,77.29
2022-12-03T13:59:00.167Z,76.54
2022-12-03T14:00:02.063Z,75.69